Terminal Aerodrome Forecast
Issued by NWS

Home | Current Version | Previous Version | Text Only | Print | Product List | Glossary On
Versions: 1 2 3 4 5 6 7 8 9 10 11 12 13 14
000
FTUS45 KRIW 301130
TAFCOD
TAF
KCOD 301130Z 3012/3112 30010KT P6SM VCSH BKN100
     FM301500 02008KT P6SM SCT100
     FM301800 02012G20KT P6SM VCTS SCT050CB BKN070
     FM310000 01012G20KT P6SM VCSH BKN050
     FM310200 36008KT P6SM BKN035
     FM311000 VRB05KT P6SM SCT070
      AMD LTD TO CLD VIS AND WIND=

USA.gov is the U.S. government's official web portal to all federal, state and local government web resources and services.